Time;durP1;ratioP1;P1;durP2;ratioP2;P2;SDS_P1;SDS_P2;PMS_P1;PMS_P2;Temp;Humidity;BMP_temperature;BMP_pressure;BME280_temperature;BME280_humidity;BME280_pressure;Samples;Min_cycle;Max_cycle;Signal;HPM_P1;HPM_P2
2022/06/28 00:00:34;;;;;;;8.93;6.55;;;29.00;99.50;;;;;;4186373;28;20067;-65
2022/06/28 00:02:44;;;;;;;9.05;6.22;;;29.00;99.40;;;;;;4172390;28;20045;-65
2022/06/28 00:04:50;;;;;;;8.18;6.05;;;29.10;99.40;;;;;;4175243;28;20072;-66
2022/06/28 00:07:06;;;;;;;8.77;5.78;;;29.10;99.40;;;;;;4176025;28;20114;-66
2022/06/28 00:09:14;;;;;;;12.50;6.80;;;29.10;99.20;;;;;;4176293;28;20041;-66
2022/06/28 00:11:21;;;;;;;10.43;6.82;;;29.10;99.30;;;;;;4175164;28;20319;-62
2022/06/28 00:13:30;;;;;;;12.30;5.93;;;29.30;99.10;;;;;;4175241;28;20052;-65
2022/06/28 00:17:52;;;;;;;11.70;6.00;;;29.30;99.20;;;;;;4176741;28;20045;-64
2022/06/28 00:20:00;;;;;;;10.38;6.10;;;29.40;99.10;;;;;;4176424;28;20065;-65
2022/06/28 00:22:09;;;;;;;8.55;6.00;;;29.40;99.10;;;;;;4176974;28;20044;-63
2022/06/28 00:24:14;;;;;;;8.15;5.72;;;29.50;98.90;;;;;;4172629;28;20045;-65
2022/06/28 00:26:25;;;;;;;9.25;5.65;;;29.50;99.00;;;;;;4173406;28;20049;-64
2022/06/28 00:28:30;;;;;;;7.50;5.28;;;29.60;99.10;;;;;;4172434;28;20290;-64
2022/06/28 00:30:35;;;;;;;10.38;5.05;;;29.60;99.00;;;;;;4161324;28;20515;-64
2022/06/28 00:32:46;;;;;;;7.60;5.22;;;29.70;99.00;;;;;;4171627;28;20099;-64
2022/06/28 00:35:03;;;;;;;7.38;5.13;;;29.70;98.80;;;;;;4174261;28;20528;-64
2022/06/28 00:37:23;;;;;;;9.70;5.78;;;29.80;98.80;;;;;;4174804;28;20037;-64
2022/06/28 00:39:38;;;;;;;9.25;5.25;;;29.80;98.80;;;;;;4172575;28;20049;-64
2022/06/28 00:41:44;;;;;;;11.23;6.15;;;29.80;98.70;;;;;;4175805;28;20099;-64
2022/06/28 00:43:58;;;;;;;6.53;5.15;;;29.80;98.50;;;;;;4173948;28;20037;-64
2022/06/28 00:46:05;;;;;;;8.63;4.82;;;29.90;98.60;;;;;;4140680;28;20128;-64
2022/06/28 00:48:13;;;;;;;8.75;5.43;;;30.00;98.60;;;;;;4181736;28;20040;-63
2022/06/28 00:50:18;;;;;;;7.53;5.03;;;30.00;98.50;;;;;;4163544;28;20191;-63
2022/06/28 00:52:35;;;;;;;6.82;5.47;;;30.00;98.40;;;;;;4151973;28;20214;-64
2022/06/28 00:54:40;;;;;;;7.35;5.13;;;30.10;98.40;;;;;;4179894;28;20033;-63
2022/06/28 00:56:54;;;;;;;8.85;5.18;;;30.20;98.30;;;;;;4158201;28;20053;-63
2022/06/28 00:59:07;;;;;;;8.93;5.03;;;30.30;98.20;;;;;;4172084;28;20032;-64
2022/06/28 01:01:19;;;;;;;9.38;5.13;;;30.30;97.90;;;;;;4170837;28;20048;-63
2022/06/28 01:03:34;;;;;;;6.32;4.57;;;30.30;97.80;;;;;;4158545;28;20642;-64
2022/06/28 01:05:54;;;;;;;6.53;5.00;;;30.30;97.90;;;;;;4174033;28;20589;-65
2022/06/28 01:08:05;;;;;;;5.88;4.55;;;30.40;97.60;;;;;;4157753;28;20434;-65
2022/06/28 01:10:29;;;;;;;11.30;5.30;;;30.40;97.60;;;;;;4160561;28;20057;-64
2022/06/28 01:12:48;;;;;;;9.27;4.70;;;30.50;97.40;;;;;;4158882;28;20058;-64
2022/06/28 01:14:59;;;;;;;7.72;4.43;;;30.60;97.50;;;;;;4158220;28;20056;-65
2022/06/28 01:17:22;;;;;;;6.03;4.80;;;30.60;97.40;;;;;;4141163;28;20501;-65
2022/06/28 01:19:45;;;;;;;6.35;4.82;;;30.70;97.20;;;;;;4127349;28;20670;-65
2022/06/28 01:22:17;;;;;;;8.55;4.78;;;30.80;97.10;;;;;;4144557;28;20080;-65
2022/06/28 01:24:38;;;;;;;8.77;5.03;;;30.90;96.90;;;;;;4143705;28;20053;-64
2022/06/28 01:26:54;;;;;;;11.43;6.78;;;31.00;96.80;;;;;;4141060;28;20084;-64
2022/06/28 01:29:01;;;;;;;8.73;5.60;;;31.00;96.80;;;;;;4140866;28;20046;-64
2022/06/28 01:31:33;;;;;;;8.15;5.80;;;31.00;96.50;;;;;;4131155;28;20112;-64
2022/06/28 01:33:40;;;;;;;7.88;5.32;;;31.00;96.40;;;;;;4140870;28;20111;-64
2022/06/28 01:35:49;;;;;;;7.32;4.93;;;31.10;96.50;;;;;;4157274;28;20140;-64
2022/06/28 01:37:57;;;;;;;5.13;4.20;;;31.10;96.40;;;;;;4125336;28;20052;-64
2022/06/28 01:40:09;;;;;;;6.72;4.32;;;31.20;96.40;;;;;;4126595;28;20046;-65
2022/06/28 01:42:20;;;;;;;6.22;4.90;;;31.30;96.30;;;;;;4126578;28;20054;-64
2022/06/28 01:44:25;;;;;;;6.10;4.43;;;31.30;95.70;;;;;;4140766;28;20464;-64
2022/06/28 01:47:04;;;;;;;7.13;4.82;;;31.30;96.00;;;;;;4106685;28;20157;-64
2022/06/28 01:49:28;;;;;;;6.70;4.18;;;31.30;95.80;;;;;;4161465;28;20467;-64
2022/06/28 01:51:39;;;;;;;8.05;4.72;;;31.40;96.00;;;;;;4174711;28;20424;-64
2022/06/28 01:53:57;;;;;;;6.90;4.25;;;31.50;95.70;;;;;;4160414;28;20037;-64
2022/06/28 01:56:11;;;;;;;9.93;4.80;;;31.50;95.90;;;;;;4159694;28;20124;-64
2022/06/28 01:58:38;;;;;;;7.53;4.95;;;31.50;95.70;;;;;;4176181;28;20095;-64
2022/06/28 02:00:47;;;;;;;9.30;5.35;;;31.60;95.70;;;;;;4174830;28;20422;-65
2022/06/28 02:03:04;;;;;;;7.68;5.28;;;31.60;95.80;;;;;;4167268;28;20043;-64
2022/06/28 02:05:29;;;;;;;9.73;5.13;;;31.60;95.60;;;;;;4166160;28;20045;-64
2022/06/28 02:07:47;;;;;;;5.20;4.30;;;31.70;95.20;;;;;;4153664;28;20048;-64
2022/06/28 02:09:55;;;;;;;5.43;4.07;;;31.80;95.00;;;;;;4174805;28;20051;-64
2022/06/28 02:12:00;;;;;;;5.53;3.90;;;31.70;94.60;;;;;;4174613;28;20053;-64
2022/06/28 02:14:09;;;;;;;7.53;4.00;;;31.80;94.80;;;;;;4158313;28;20491;-64
2022/06/28 02:16:15;;;;;;;5.20;3.58;;;31.90;95.00;;;;;;4152118;28;20053;-63
2022/06/28 02:18:23;;;;;;;6.00;3.75;;;32.00;95.00;;;;;;4173381;28;20075;-65
2022/06/28 02:20:33;;;;;;;6.53;4.57;;;32.10;94.80;;;;;;4173786;28;20554;-64
2022/06/28 02:22:38;;;;;;;8.35;4.45;;;32.20;94.90;;;;;;4174370;28;20608;-64
2022/06/28 02:24:51;;;;;;;7.63;4.20;;;32.30;95.00;;;;;;4159532;28;20080;-64
2022/06/28 02:26:58;;;;;;;6.20;4.63;;;32.30;95.00;;;;;;4174082;28;20056;-65
2022/06/28 02:29:10;;;;;;;6.63;4.35;;;32.30;95.10;;;;;;4174053;28;20052;-64
2022/06/28 02:31:16;;;;;;;7.10;4.40;;;32.10;95.00;;;;;;4170379;28;20041;-64
2022/06/28 02:33:22;;;;;;;9.15;5.55;;;32.00;94.50;;;;;;4165217;28;20313;-64
2022/06/28 02:40:23;;;;;;;5.78;4.25;;;32.30;94.00;;;;;;4163485;28;20041;-64
2022/06/28 02:42:33;;;;;;;5.78;4.57;;;32.40;94.20;;;;;;4158081;28;20045;-64
2022/06/28 02:44:43;;;;;;;6.57;4.57;;;32.50;93.90;;;;;;4161529;28;20064;-62
2022/06/28 02:46:49;;;;;;;6.57;3.90;;;32.60;93.60;;;;;;4160843;28;20059;-64
2022/06/28 02:48:54;;;;;;;8.00;4.50;;;32.70;93.80;;;;;;4161440;28;20060;-64
2022/06/28 02:51:01;;;;;;;5.07;4.10;;;32.80;93.80;;;;;;4160714;28;20041;-64
2022/06/28 02:53:08;;;;;;;7.07;4.25;;;32.90;93.90;;;;;;4161723;28;20056;-64
2022/06/28 02:55:16;;;;;;;6.18;4.40;;;32.90;93.90;;;;;;4160928;28;20232;-64
2022/06/28 02:57:30;;;;;;;4.90;4.40;;;32.70;94.10;;;;;;4161753;28;20076;-64
2022/06/28 02:59:37;;;;;;;7.40;5.43;;;32.70;94.50;;;;;;4160456;28;20051;-64
2022/06/28 03:01:46;;;;;;;9.05;5.32;;;32.40;94.30;;;;;;4171252;28;20041;-64
2022/06/28 03:03:59;;;;;;;8.45;4.95;;;32.50;94.50;;;;;;4161307;28;20497;-64
2022/06/28 03:06:12;;;;;;;8.23;5.03;;;32.50;94.60;;;;;;4176838;28;20083;-64
2022/06/28 03:08:24;;;;;;;8.77;5.05;;;32.50;94.50;;;;;;4161610;28;20551;-64
2022/06/28 03:10:35;;;;;;;8.45;5.60;;;32.70;94.40;;;;;;4176654;28;20124;-65
2022/06/28 03:12:59;;;;;;;7.43;4.30;;;32.80;93.90;;;;;;4177126;28;20041;-64
2022/06/28 03:15:09;;;;;;;10.70;4.95;;;32.90;93.00;;;;;;4193028;28;20517;-64
2022/06/28 03:17:21;;;;;;;6.38;4.47;;;32.70;93.30;;;;;;4161599;28;20072;-64
2022/06/28 03:19:29;;;;;;;7.10;4.53;;;32.70;93.20;;;;;;4176408;28;20116;-63
2022/06/28 03:21:34;;;;;;;6.20;4.13;;;32.70;93.00;;;;;;4176209;28;20044;-64
2022/06/28 03:23:39;;;;;;;6.53;3.88;;;32.90;92.90;;;;;;4192606;28;20048;-63
2022/06/28 03:25:52;;;;;;;4.53;3.40;;;32.80;92.30;;;;;;4169394;28;20512;-62
2022/06/28 03:27:58;;;;;;;4.90;3.80;;;32.90;92.30;;;;;;4172953;28;20041;-62
2022/06/28 03:30:08;;;;;;;4.72;3.58;;;32.90;92.40;;;;;;4173234;28;20163;-62
2022/06/28 03:32:20;;;;;;;7.18;4.00;;;32.90;92.70;;;;;;4176524;28;20041;-63
2022/06/28 03:34:25;;;;;;;6.70;3.50;;;32.90;92.80;;;;;;4161683;28;20038;-63
2022/06/28 03:36:32;;;;;;;7.38;3.53;;;32.90;93.00;;;;;;4160016;28;20037;-63
2022/06/28 03:38:59;;;;;;;6.13;3.63;;;32.90;93.10;;;;;;4160837;28;20034;-63
2022/06/28 03:41:24;;;;;;;7.47;3.35;;;33.20;93.00;;;;;;4176081;28;20056;-63
2022/06/28 03:43:44;;;;;;;6.03;3.50;;;33.30;92.00;;;;;;4159530;28;20092;-63
2022/06/28 03:45:51;;;;;;;4.82;3.58;;;33.50;92.00;;;;;;4176078;28;20358;-63
2022/06/28 03:48:15;;;;;;;5.63;3.70;;;33.50;92.20;;;;;;4162342;28;20052;-63
2022/06/28 03:50:36;;;;;;;5.65;3.92;;;33.30;92.20;;;;;;4160762;28;20041;-63
2022/06/28 03:53:09;;;;;;;6.95;3.88;;;33.10;92.20;;;;;;4172580;28;20511;-63
2022/06/28 03:55:33;;;;;;;4.68;3.50;;;33.40;92.10;;;;;;4176004;28;20045;-63
2022/06/28 03:57:42;;;;;;;7.68;3.55;;;33.40;92.10;;;;;;4176546;28;20047;-63
2022/06/28 03:59:52;;;;;;;4.95;3.50;;;33.60;91.70;;;;;;4159420;28;20883;-63
2022/06/28 04:02:03;;;;;;;6.38;3.40;;;33.70;91.60;;;;;;4186614;28;20132;-63
2022/06/28 04:04:18;;;;;;;4.68;2.90;;;33.80;91.00;;;;;;4159399;28;20136;-63
2022/06/28 04:06:31;;;;;;;6.63;3.40;;;33.90;90.80;;;;;;4159331;28;20053;-63
2022/06/28 04:08:39;;;;;;;6.07;3.30;;;33.70;91.20;;;;;;4159342;28;20077;-63
2022/06/28 04:10:47;;;;;;;4.90;3.35;;;33.90;91.40;;;;;;4166079;28;20107;-63
2022/06/28 04:13:02;;;;;;;6.80;3.22;;;34.10;91.50;;;;;;4167233;28;20041;-63
2022/06/28 04:15:26;;;;;;;5.55;3.30;;;34.20;91.00;;;;;;4153514;28;20050;-63
2022/06/28 04:17:41;;;;;;;3.85;3.08;;;34.10;90.90;;;;;;4164872;28;20048;-64
2022/06/28 04:20:05;;;;;;;5.70;2.90;;;34.10;91.10;;;;;;4159343;28;20037;-63
2022/06/28 04:22:25;;;;;;;3.25;2.65;;;34.10;91.00;;;;;;4159190;28;20664;-64
2022/06/28 04:24:37;;;;;;;3.13;2.70;;;34.40;90.90;;;;;;4159129;28;20076;-63
2022/06/28 04:26:58;;;;;;;4.15;2.90;;;34.40;89.50;;;;;;4158959;28;20480;-63
2022/06/28 04:29:12;;;;;;;3.72;2.80;;;34.10;90.50;;;;;;4174425;28;20218;-63
2022/06/28 04:31:23;;;;;;;3.72;2.40;;;33.90;90.70;;;;;;4166258;28;20601;-63
2022/06/28 04:33:32;;;;;;;3.97;2.50;;;34.00;89.00;;;;;;4175329;28;20095;-63
2022/06/28 04:35:40;;;;;;;2.95;2.65;;;34.20;90.00;;;;;;4175406;28;20045;-63
2022/06/28 04:37:48;;;;;;;3.88;2.55;;;34.00;90.10;;;;;;4175717;28;20037;-63
2022/06/28 04:40:11;;;;;;;3.90;2.70;;;34.00;89.30;;;;;;4174020;28;20048;-63
2022/06/28 04:42:27;;;;;;;4.55;2.63;;;34.00;89.10;;;;;;4166669;28;20069;-64
2022/06/28 04:44:33;;;;;;;3.92;2.50;;;34.00;89.50;;;;;;4166527;28;20067;-63
2022/06/28 04:46:39;;;;;;;5.03;2.40;;;34.10;89.30;;;;;;4166755;28;20103;-64
2022/06/28 04:48:54;;;;;;;6.70;2.70;;;34.20;88.90;;;;;;4169373;28;20514;-63
2022/06/28 04:51:13;;;;;;;4.95;2.65;;;34.10;88.60;;;;;;4174017;28;20419;-62
2022/06/28 04:53:22;;;;;;;2.22;1.63;;;34.20;88.20;;;;;;4174327;28;20498;-63
2022/06/28 04:55:34;;;;;;;4.75;2.22;;;34.40;88.80;;;;;;4174717;28;20558;-63
2022/06/28 04:57:43;;;;;;;4.97;2.08;;;34.40;88.40;;;;;;4191683;28;20044;-63
2022/06/28 04:59:54;;;;;;;2.83;2.00;;;34.40;86.90;;;;;;4191370;28;20577;-62
2022/06/28 05:02:21;;;;;;;3.58;2.15;;;34.60;86.80;;;;;;4174634;28;20051;-63
2022/06/28 05:04:30;;;;;;;3.05;1.80;;;34.80;86.40;;;;;;4174492;28;20049;-63
2022/06/28 05:06:51;;;;;;;2.90;1.80;;;35.00;87.20;;;;;;4174300;28;20047;-62
2022/06/28 05:08:57;;;;;;;3.72;2.10;;;35.00;86.50;;;;;;4159111;28;20045;-63
2022/06/28 05:11:32;;;;;;;2.90;1.83;;;35.20;86.80;;;;;;4157246;28;20057;-62
2022/06/28 05:13:57;;;;;;;;;;;35.30;85.70;;;;;;4142069;28;20041;-62
2022/06/28 05:16:04;;;;;;;3.92;1.92;;;35.40;85.20;;;;;;4157397;28;19921;-62
2022/06/28 05:18:27;;;;;;;3.47;1.63;;;35.40;85.40;;;;;;4157820;28;20065;-62
2022/06/28 05:20:46;;;;;;;5.07;2.00;;;35.40;85.80;;;;;;4140977;28;20092;-62
2022/06/28 05:22:52;;;;;;;3.08;1.92;;;35.30;85.70;;;;;;4157562;28;20465;-62
2022/06/28 05:25:25;;;;;;;2.65;1.70;;;35.10;85.70;;;;;;4157539;28;20087;-62
2022/06/28 05:27:36;;;;;;;3.25;1.50;;;35.10;84.40;;;;;;4157473;28;20049;-63
2022/06/28 05:29:42;;;;;;;1.60;1.20;;;35.00;83.70;;;;;;4140842;28;20138;-63
2022/06/28 05:31:48;;;;;;;1.75;1.17;;;35.20;81.80;;;;;;4126602;28;20497;-62
2022/06/28 05:33:58;;;;;;;3.42;1.20;;;35.30;81.60;;;;;;4140383;28;20038;-62
2022/06/28 05:36:05;;;;;;;2.35;1.40;;;35.30;82.50;;;;;;4140156;28;20046;-62
2022/06/28 05:38:15;;;;;;;3.30;1.48;;;35.50;83.40;;;;;;4125059;28;20126;-62
2022/06/28 05:40:23;;;;;;;1.98;1.17;;;35.70;82.10;;;;;;4140380;28;20100;-62
2022/06/28 05:42:29;;;;;;;2.92;1.00;;;35.60;80.40;;;;;;4124856;28;20105;-62
2022/06/28 05:44:35;;;;;;;1.80;1.05;;;35.60;81.50;;;;;;4124032;28;20101;-62
2022/06/28 05:46:44;;;;;;;1.30;0.88;;;35.70;81.10;;;;;;4124178;28;20566;-62
2022/06/28 05:48:49;;;;;;;1.70;1.02;;;35.70;80.50;;;;;;4146140;28;20459;-62
2022/06/28 05:51:01;;;;;;;1.80;1.27;;;35.60;79.80;;;;;;4159207;28;20045;-63
2022/06/28 05:53:08;;;;;;;1.90;0.90;;;35.50;78.90;;;;;;4159246;28;20046;-62
2022/06/28 05:55:20;;;;;;;1.10;0.95;;;35.50;78.90;;;;;;4158673;28;20064;-63
2022/06/28 05:57:33;;;;;;;1.00;0.90;;;35.50;78.90;;;;;;4159188;28;20038;-62
2022/06/28 05:59:42;;;;;;;2.75;1.10;;;35.60;78.70;;;;;;4158990;28;20061;-63
2022/06/28 06:01:50;;;;;;;1.20;0.85;;;35.40;79.10;;;;;;4185235;28;20106;-62
2022/06/28 06:04:07;;;;;;;1.60;1.10;;;35.50;79.70;;;;;;4174752;28;20147;-64
2022/06/28 06:06:19;;;;;;;1.25;0.93;;;35.70;80.30;;;;;;4174541;28;20049;-62
2022/06/28 06:08:25;;;;;;;1.75;1.10;;;35.70;79.40;;;;;;4174813;28;20569;-62
2022/06/28 06:10:30;;;;;;;1.35;0.98;;;35.80;79.60;;;;;;4173942;28;20068;-62
2022/06/28 06:12:37;;;;;;;2.30;0.95;;;35.80;79.00;;;;;;4158160;28;20046;-63
2022/06/28 06:14:43;;;;;;;2.70;1.13;;;35.50;79.60;;;;;;4175645;28;20037;-62
2022/06/28 06:16:53;;;;;;;1.50;0.95;;;35.50;79.90;;;;;;4174039;28;20045;-63
2022/06/28 06:19:00;;;;;;;1.63;0.77;;;35.70;79.90;;;;;;4176699;28;20423;-63
2022/06/28 06:21:06;;;;;;;2.10;1.02;;;35.70;79.60;;;;;;4178508;28;20060;-63
2022/06/28 06:23:15;;;;;;;7.40;1.90;;;35.30;79.60;;;;;;4177464;28;20049;-63
2022/06/28 06:25:32;;;;;;;1.38;1.00;;;35.10;80.10;;;;;;4178248;28;20041;-62
2022/06/28 06:27:43;;;;;;;6.05;1.23;;;35.20;80.00;;;;;;4177351;28;20041;-63
2022/06/28 06:29:50;;;;;;;2.03;1.38;;;35.20;79.60;;;;;;4143444;28;20049;-63
2022/06/28 06:32:18;;;;;;;4.28;1.30;;;35.40;79.10;;;;;;4177536;28;20095;-62
2022/06/28 06:35:02;;;;;;;3.53;3.00;;;35.70;81.20;;;;;;4176969;28;20041;-63
2022/06/28 06:37:11;;;;;;;2.28;1.35;;;35.80;79.60;;;;;;4177817;28;20045;-62
2022/06/28 06:39:23;;;;;;;1.10;0.80;;;35.90;79.60;;;;;;4177349;28;20040;-62
2022/06/28 06:41:33;;;;;;;1.70;1.00;;;35.40;78.50;;;;;;4176582;28;20056;-62
2022/06/28 06:43:38;;;;;;;1.88;1.02;;;35.50;79.10;;;;;;4177388;28;20049;-62
2022/06/28 06:45:53;;;;;;;1.88;1.25;;;35.80;78.40;;;;;;4177081;28;20083;-62
2022/06/28 06:47:58;;;;;;;2.17;0.93;;;36.10;78.90;;;;;;4179061;28;20332;-62
2022/06/28 06:50:08;;;;;;;1.35;0.88;;;36.30;78.90;;;;;;4157711;28;20088;-63
2022/06/28 06:52:18;;;;;;;4.18;1.45;;;36.60;79.30;;;;;;4166332;28;20120;-62
2022/06/28 06:54:30;;;;;;;3.15;1.10;;;36.50;78.60;;;;;;4176266;28;20048;-63
2022/06/28 06:56:38;;;;;;;1.83;1.13;;;36.70;79.60;;;;;;4142850;28;20057;-63
2022/06/28 06:58:47;;;;;;;3.20;1.30;;;36.90;79.10;;;;;;4176732;28;20068;-63
2022/06/28 07:00:54;;;;;;;2.25;1.20;;;36.60;78.70;;;;;;4163861;28;20503;-63
2022/06/28 07:03:04;;;;;;;2.70;1.10;;;36.20;78.80;;;;;;4160677;28;20096;-64
2022/06/28 07:05:19;;;;;;;1.80;1.10;;;36.30;78.70;;;;;;4143496;28;20558;-63
2022/06/28 07:07:41;;;;;;;2.08;1.13;;;36.30;79.10;;;;;;4159313;28;20054;-63
2022/06/28 07:10:02;;;;;;;2.17;1.08;;;35.90;79.40;;;;;;4144018;28;20073;-63
2022/06/28 07:12:22;;;;;;;2.10;1.10;;;35.80;79.70;;;;;;4172336;28;20531;-63
2022/06/28 07:14:29;;;;;;;3.03;1.02;;;35.80;80.00;;;;;;4158935;28;20045;-63
2022/06/28 07:16:58;;;;;;;1.63;1.23;;;36.10;79.60;;;;;;4144823;28;20198;-64
2022/06/28 07:19:05;;;;;;;3.63;1.60;;;36.40;80.30;;;;;;4142439;28;20104;-63
2022/06/28 07:21:10;;;;;;;2.83;1.40;;;36.60;80.50;;;;;;4142489;28;20082;-63
2022/06/28 07:23:18;;;;;;;2.15;1.13;;;36.80;79.60;;;;;;4142325;28;20042;-63
2022/06/28 07:25:33;;;;;;;1.80;1.20;;;37.00;79.20;;;;;;4148832;28;20042;-63
2022/06/28 07:27:37;;;;;;;1.67;1.20;;;37.10;78.60;;;;;;4142150;28;20042;-63
2022/06/28 07:29:45;;;;;;;1.48;1.10;;;36.80;78.70;;;;;;4150673;28;20555;-63
2022/06/28 07:31:52;;;;;;;3.28;1.40;;;36.50;78.80;;;;;;4158370;28;20061;-63
2022/06/28 07:33:57;;;;;;;2.10;1.23;;;36.60;78.30;;;;;;4166608;28;20072;-63
2022/06/28 07:36:13;;;;;;;2.40;1.20;;;36.50;78.90;;;;;;4164493;28;20045;-63
2022/06/28 07:38:21;;;;;;;2.90;1.40;;;36.70;77.60;;;;;;4176730;28;20048;-63
2022/06/28 07:40:39;;;;;;;3.22;1.30;;;36.70;78.20;;;;;;4160564;28;20045;-63
2022/06/28 07:43:04;;;;;;;2.97;1.23;;;36.70;77.70;;;;;;4161011;28;20136;-63
2022/06/28 07:45:31;;;;;;;3.53;1.30;;;36.70;77.90;;;;;;4160205;28;20503;-62
2022/06/28 07:47:51;;;;;;;2.45;1.30;;;36.60;77.30;;;;;;4175920;28;20148;-63
2022/06/28 07:54:34;;;;;;;4.72;1.50;;;36.60;77.40;;;;;;4175497;28;20037;-63
2022/06/28 07:56:49;;;;;;;3.50;1.20;;;36.80;78.20;;;;;;4160974;28;20148;-63
2022/06/28 07:58:55;;;;;;;2.22;1.20;;;36.90;77.70;;;;;;4176047;28;20098;-63
2022/06/28 08:01:04;;;;;;;1.30;1.15;;;36.90;77.10;;;;;;4180729;28;20409;-63
2022/06/28 08:03:13;;;;;;;2.38;1.05;;;37.00;77.40;;;;;;4125695;28;20055;-63
2022/06/28 08:05:22;;;;;;;1.42;1.00;;;37.10;75.00;;;;;;4177323;28;20074;-63
2022/06/28 08:07:27;;;;;;;2.63;0.77;;;37.00;74.50;;;;;;4176049;28;20091;-63
2022/06/28 08:09:35;;;;;;;1.80;0.93;;;36.80;74.80;;;;;;4175913;28;20041;-63
2022/06/28 08:11:42;;;;;;;3.28;0.95;;;36.70;74.90;;;;;;4159635;28;20037;-63
2022/06/28 08:13:50;;;;;;;2.92;0.90;;;36.70;75.70;;;;;;4192261;28;20044;-63
2022/06/28 08:15:58;;;;;;;1.88;1.00;;;36.80;76.00;;;;;;4175217;28;20049;-63
2022/06/28 08:18:05;;;;;;;2.17;0.90;;;36.80;76.20;;;;;;4192819;28;20056;-63
2022/06/28 08:20:11;;;;;;;2.45;1.15;;;37.00;77.00;;;;;;4175557;28;20539;-64
2022/06/28 08:22:18;;;;;;;2.60;1.30;;;37.20;79.70;;;;;;4175595;28;20075;-63
2022/06/28 08:24:25;;;;;;;2.17;1.08;;;37.30;77.90;;;;;;4175574;28;20094;-64
2022/06/28 08:26:30;;;;;;;1.67;1.20;;;37.30;77.80;;;;;;4175543;28;20427;-63
2022/06/28 08:28:36;;;;;;;3.35;1.17;;;37.40;78.10;;;;;;4159939;28;20053;-63
2022/06/28 08:30:43;;;;;;;2.75;1.30;;;37.20;78.30;;;;;;4176057;28;20053;-63
2022/06/28 08:32:48;;;;;;;2.15;1.05;;;37.20;77.00;;;;;;4175839;28;20055;-63
2022/06/28 08:34:55;;;;;;;3.30;1.30;;;36.90;76.20;;;;;;4159081;28;20049;-63
2022/06/28 08:36:59;;;;;;;3.63;1.50;;;36.80;76.20;;;;;;4176331;28;20094;-64
2022/06/28 08:39:05;;;;;;;1.85;1.48;;;36.80;75.80;;;;;;4175370;28;20045;-63
2022/06/28 08:41:10;;;;;;;3.70;1.58;;;36.90;75.70;;;;;;4173562;28;20068;-63
2022/06/28 08:43:15;;;;;;;4.63;1.15;;;37.10;76.10;;;;;;4157754;28;20056;-63
2022/06/28 08:45:21;;;;;;;2.97;1.00;;;37.20;76.10;;;;;;4157925;28;20337;-63
2022/06/28 08:47:27;;;;;;;2.28;0.80;;;37.30;76.40;;;;;;4157881;28;20096;-63
2022/06/28 08:49:55;;;;;;;1.00;0.90;;;37.20;75.10;;;;;;4125641;28;20406;-63
2022/06/28 08:52:03;;;;;;;2.15;1.35;;;36.60;75.90;;;;;;4157584;28;20072;-63
2022/06/28 08:54:23;;;;;;;4.93;1.67;;;36.00;76.50;;;;;;4128773;28;20566;-63
2022/06/28 08:56:30;;;;;;;2.25;1.08;;;36.10;76.80;;;;;;4125178;28;20125;-63
2022/06/28 08:58:42;;;;;;;1.85;1.00;;;36.10;76.40;;;;;;4157698;28;20045;-63
2022/06/28 09:00:48;;;;;;;2.03;0.95;;;36.10;76.40;;;;;;4156963;28;20421;-63
2022/06/28 09:02:54;;;;;;;4.10;1.00;;;36.20;77.40;;;;;;4141721;28;20092;-64
2022/06/28 09:05:01;;;;;;;3.10;1.02;;;36.40;75.60;;;;;;4157296;28;20587;-63
2022/06/28 09:07:09;;;;;;;3.83;3.30;;;36.50;75.10;;;;;;4156422;28;20049;-63
2022/06/28 09:09:16;;;;;;;4.32;1.90;;;36.70;75.00;;;;;;4140794;28;20056;-63
2022/06/28 09:11:21;;;;;;;2.45;2.10;;;36.60;75.10;;;;;;4156651;28;20037;-63
2022/06/28 09:13:27;;;;;;;3.40;1.30;;;36.60;75.10;;;;;;4157074;28;20542;-64
2022/06/28 09:15:45;;;;;;;2.17;1.20;;;36.50;75.50;;;;;;4176036;28;20044;-64
2022/06/28 09:17:55;;;;;;;1.48;1.25;;;36.50;76.20;;;;;;4175371;28;20471;-63
2022/06/28 09:20:09;;;;;;;1.30;1.20;;;36.30;76.00;;;;;;4176075;28;20052;-63
2022/06/28 09:22:37;;;;;;;2.13;1.27;;;36.30;76.30;;;;;;4174801;28;20503;-63
2022/06/28 09:24:44;;;;;;;2.42;1.58;;;36.20;77.40;;;;;;4175933;28;20079;-63
2022/06/28 09:26:55;;;;;;;1.42;1.00;;;36.10;77.20;;;;;;4156229;28;20580;-63
2022/06/28 09:29:12;;;;;;;3.67;3.08;;;36.10;76.60;;;;;;4155367;28;20221;-63
2022/06/28 09:31:27;;;;;;;5.97;3.47;;;36.10;76.60;;;;;;4156148;28;20504;-63
2022/06/28 09:33:35;;;;;;;3.80;2.03;;;36.10;76.90;;;;;;4155876;28;20427;-63
2022/06/28 09:35:39;;;;;;;2.50;1.20;;;36.10;77.20;;;;;;4156118;28;20583;-63
2022/06/28 09:37:53;;;;;;;2.80;1.08;;;36.10;77.60;;;;;;4156524;28;20689;-64
2022/06/28 09:40:11;;;;;;;1.50;1.00;;;36.10;77.70;;;;;;4156324;28;20532;-63
2022/06/28 09:42:16;;;;;;;2.50;1.30;;;36.00;78.00;;;;;;4154335;28;20046;-63
2022/06/28 09:44:25;;;;;;;4.35;1.73;;;35.90;78.10;;;;;;4137284;28;20160;-64
2022/06/28 09:46:33;;;;;;;2.75;1.30;;;35.90;77.90;;;;;;4123280;28;20054;-63
2022/06/28 09:48:40;;;;;;;1.98;1.10;;;36.00;78.10;;;;;;4123830;28;20046;-63
2022/06/28 09:50:45;;;;;;;5.90;1.50;;;36.10;78.30;;;;;;4139386;28;20042;-64
2022/06/28 09:52:53;;;;;;;7.57;2.80;;;36.10;79.00;;;;;;4127440;28;20053;-63
2022/06/28 09:55:00;;;;;;;7.03;3.42;;;36.00;79.00;;;;;;4126932;28;20038;-63
2022/06/28 09:57:06;;;;;;;4.38;2.30;;;36.00;79.00;;;;;;4127323;28;20382;-63
2022/06/28 09:59:27;;;;;;;3.45;2.10;;;35.90;78.90;;;;;;4143022;28;20519;-63
2022/06/28 10:01:42;;;;;;;3.78;1.67;;;35.90;78.90;;;;;;4152563;28;20042;-63
2022/06/28 10:03:49;;;;;;;3.95;1.30;;;36.00;78.10;;;;;;4143342;28;20582;-64
2022/06/28 10:05:56;;;;;;;3.17;1.38;;;36.10;78.80;;;;;;4158855;28;20048;-64
2022/06/28 10:08:05;;;;;;;2.80;1.30;;;36.00;78.50;;;;;;4155402;28;20622;-64
2022/06/28 10:10:10;;;;;;;2.72;1.08;;;36.10;77.80;;;;;;4126790;28;20536;-64
2022/06/28 10:17:04;;;;;;;0.90;0.80;;;35.80;77.80;;;;;;4178121;28;20045;-64
2022/06/28 10:19:11;;;;;;;1.30;0.82;;;35.80;78.00;;;;;;4176941;28;20655;-64
2022/06/28 10:21:38;;;;;;;2.85;1.00;;;35.90;77.80;;;;;;4158781;28;20464;-65
2022/06/28 10:23:45;;;;;;;3.15;1.10;;;35.90;77.80;;;;;;4184575;28;20067;-65
2022/06/28 10:26:15;;;;;;;1.92;0.90;;;35.90;76.90;;;;;;4154612;28;20041;-64
2022/06/28 10:28:27;;;;;;;2.05;0.95;;;35.80;77.70;;;;;;4171442;28;20072;-65
2022/06/28 10:30:33;;;;;;;1.63;0.85;;;35.90;78.20;;;;;;4169423;28;20091;-65
2022/06/28 10:32:52;;;;;;;4.93;1.92;;;35.90;77.80;;;;;;4169895;28;20145;-65
2022/06/28 10:34:59;;;;;;;3.22;1.83;;;35.80;77.30;;;;;;4176238;28;20102;-66
2022/06/28 10:37:04;;;;;;;5.20;1.70;;;35.80;77.20;;;;;;4177870;28;20040;-66
2022/06/28 10:39:14;;;;;;;4.05;1.90;;;35.80;77.80;;;;;;4160387;28;20045;-65
2022/06/28 10:41:19;;;;;;;2.88;1.95;;;35.80;77.80;;;;;;4176666;28;20106;-66
2022/06/28 10:43:26;;;;;;;4.65;1.80;;;35.80;77.40;;;;;;4177233;28;20037;-64
2022/06/28 10:45:55;;;;;;;4.47;2.38;;;35.80;77.90;;;;;;4173271;28;20083;-65
2022/06/28 10:48:09;;;;;;;4.32;3.38;;;35.80;78.20;;;;;;4175236;28;20067;-65
2022/06/28 10:50:15;;;;;;;5.30;4.28;;;35.80;78.00;;;;;;4174135;28;20055;-65
2022/06/28 10:52:23;;;;;;;2.28;1.65;;;35.80;78.60;;;;;;4156242;28;20066;-65
2022/06/28 10:54:28;;;;;;;1.40;1.10;;;35.70;77.30;;;;;;4172401;28;20136;-65
2022/06/28 10:56:41;;;;;;;1.65;1.20;;;35.60;77.70;;;;;;4171779;28;20049;-65
2022/06/28 10:59:04;;;;;;;1.52;1.00;;;35.60;78.30;;;;;;4174957;28;20045;-64
2022/06/28 11:01:12;;;;;;;4.82;1.08;;;35.60;78.00;;;;;;4174295;28;20320;-65
2022/06/28 11:03:17;;;;;;;2.70;1.38;;;35.60;78.40;;;;;;4172224;28;20132;-64
2022/06/28 11:05:40;;;;;;;2.33;1.20;;;35.60;77.60;;;;;;4142195;28;20327;-64
2022/06/28 11:08:01;;;;;;;4.47;1.50;;;35.40;77.50;;;;;;4175412;28;20585;-64
2022/06/28 11:10:11;;;;;;;2.20;1.20;;;35.30;78.30;;;;;;4170969;28;20567;-65
2022/06/28 11:12:30;;;;;;;3.25;1.10;;;35.30;78.70;;;;;;4159731;28;20080;-65
2022/06/28 11:14:52;;;;;;;6.88;1.45;;;35.30;78.10;;;;;;4175522;28;20041;-65
2022/06/28 11:17:13;;;;;;;4.45;1.30;;;35.30;79.10;;;;;;4175333;28;20143;-64
2022/06/28 11:19:21;;;;;;;3.28;1.38;;;35.20;78.80;;;;;;4142957;28;20042;-66
2022/06/28 11:21:28;;;;;;;4.88;1.25;;;35.20;79.50;;;;;;4142810;28;20459;-65
2022/06/28 11:23:33;;;;;;;3.70;1.50;;;35.10;79.50;;;;;;4159369;28;20061;-64
2022/06/28 11:28:17;;;;;;;3.85;1.90;;;35.00;79.60;;;;;;4158915;28;20049;-64
2022/06/28 11:30:29;;;;;;;4.40;2.45;;;35.00;79.40;;;;;;4143492;28;20232;-65
2022/06/28 11:32:39;;;;;;;7.43;2.25;;;35.00;79.60;;;;;;4143593;28;20555;-64
2022/06/28 11:35:00;;;;;;;18.20;8.00;;;34.90;80.30;;;;;;4158872;28;20048;-65
2022/06/28 11:37:08;;;;;;;14.80;12.50;;;34.80;79.60;;;;;;4158367;28;20045;-64
2022/06/28 11:39:26;;;;;;;12.15;8.65;;;34.80;79.50;;;;;;4158763;28;20535;-64
2022/06/28 11:41:33;;;;;;;11.63;9.30;;;34.70;79.80;;;;;;4158355;28;20053;-64
2022/06/28 11:43:38;;;;;;;11.27;7.07;;;34.70;80.10;;;;;;4158909;28;20072;-64